Time;durP1;ratioP1;P1;durP2;ratioP2;P2;SDS_P1;SDS_P2;PMS_P1;PMS_P2;Temp;Humidity;BMP_temperature;BMP_pressure;BME280_temperature;BME280_humidity;BME280_pressure;Samples;Min_cycle;Max_cycle;Signal;HPM_P1;HPM_P2
2024/02/11 00:00:10;;;;;;;7.55;4.78;;;;;;;;;;5006657;28;20099;-60
2024/02/11 00:02:37;;;;;;;5.15;4.22;;;;;;;;;;5002593;28;20404;-61
2024/02/11 00:05:07;;;;;;;6.20;4.40;;;;;;;;;;5008128;28;20037;-61
2024/02/11 00:07:33;;;;;;;10.45;5.38;;;;;;;;;;5007403;28;20452;-61
2024/02/11 00:09:59;;;;;;;6.03;4.18;;;;;;;;;;5013378;28;20088;-61
2024/02/11 00:12:25;;;;;;;9.25;4.55;;;;;;;;;;5004466;28;20105;-61
2024/02/11 00:14:51;;;;;;;7.07;4.45;;;;;;;;;;5004471;28;20026;-61
2024/02/11 00:17:19;;;;;;;9.73;4.43;;;;;;;;;;5008771;28;20041;-61
2024/02/11 00:19:45;;;;;;;13.32;4.20;;;;;;;;;;5011050;28;20060;-61
2024/02/11 00:22:13;;;;;;;9.52;4.78;;;;;;;;;;5002337;28;20451;-61
2024/02/11 00:24:39;;;;;;;7.45;4.63;;;;;;;;;;5009177;28;20038;-61
2024/02/11 00:27:05;;;;;;;9.48;4.55;;;;;;;;;;5003091;28;20040;-61
2024/02/11 00:29:31;;;;;;;9.45;5.20;;;;;;;;;;5001029;28;20114;-61
2024/02/11 00:31:58;;;;;;;12.23;4.80;;;;;;;;;;5001773;28;20030;-61
2024/02/11 00:34:42;;;;;;;10.60;4.88;;;;;;;;;;4996442;28;20026;-61
2024/02/11 00:37:10;;;;;;;12.30;5.32;;;;;;;;;;5012479;28;20048;-61
2024/02/11 00:39:37;;;;;;;14.35;5.88;;;;;;;;;;5013190;28;20105;-61
2024/02/11 00:42:03;;;;;;;10.77;5.00;;;;;;;;;;5006863;28;20054;-61
2024/02/11 00:44:30;;;;;;;11.90;5.55;;;;;;;;;;5011966;28;20476;-61
2024/02/11 00:46:56;;;;;;;13.15;5.55;;;;;;;;;;5009833;28;20040;-61
2024/02/11 00:49:23;;;;;;;14.15;5.68;;;;;;;;;;5004340;28;20087;-61
2024/02/11 00:51:48;;;;;;;13.57;5.53;;;;;;;;;;5004234;28;20030;-61
2024/02/11 00:54:15;;;;;;;9.60;4.70;;;;;;;;;;5002723;28;20026;-61
2024/02/11 00:56:44;;;;;;;11.57;4.90;;;;;;;;;;5010174;28;20145;-61
2024/02/11 00:59:10;;;;;;;15.82;4.75;;;;;;;;;;5006229;28;20038;-61
2024/02/11 01:01:39;;;;;;;15.23;5.03;;;;;;;;;;5004876;28;20460;-62
2024/02/11 01:04:05;;;;;;;11.13;4.78;;;;;;;;;;5010318;28;20022;-62
2024/02/11 01:06:31;;;;;;;8.35;4.10;;;;;;;;;;5006681;28;20068;-62
2024/02/11 01:08:57;;;;;;;7.32;4.50;;;;;;;;;;5009205;28;20340;-61
2024/02/11 01:11:24;;;;;;;11.70;4.03;;;;;;;;;;5001360;28;20110;-62
2024/02/11 01:13:50;;;;;;;8.85;4.10;;;;;;;;;;5002335;28;20034;-61
2024/02/11 01:16:16;;;;;;;12.85;4.40;;;;;;;;;;5013527;28;20085;-61
2024/02/11 01:18:46;;;;;;;8.65;3.70;;;;;;;;;;5011407;28;20025;-61
2024/02/11 01:21:12;;;;;;;6.65;3.78;;;;;;;;;;5002223;28;20041;-61
2024/02/11 01:23:38;;;;;;;11.52;4.03;;;;;;;;;;4999801;28;20126;-61
2024/02/11 01:26:04;;;;;;;9.63;3.70;;;;;;;;;;5003793;28;20437;-61
2024/02/11 01:28:30;;;;;;;8.10;3.35;;;;;;;;;;5004794;28;20030;-61
2024/02/11 01:30:57;;;;;;;8.50;3.92;;;;;;;;;;5008470;28;20030;-61
2024/02/11 01:33:23;;;;;;;11.95;4.13;;;;;;;;;;5005989;28;20036;-61
2024/02/11 01:35:49;;;;;;;8.32;4.15;;;;;;;;;;4998410;28;20101;-61
2024/02/11 01:38:15;;;;;;;11.15;4.13;;;;;;;;;;5003963;28;20026;-61
2024/02/11 01:40:42;;;;;;;9.18;3.95;;;;;;;;;;5004539;28;20388;-61
2024/02/11 01:43:09;;;;;;;11.68;4.47;;;;;;;;;;5008534;28;20030;-61
2024/02/11 01:45:35;;;;;;;10.90;4.40;;;;;;;;;;5000461;28;20022;-61
2024/02/11 01:48:05;;;;;;;7.90;4.50;;;;;;;;;;5001075;28;20058;-61
2024/02/11 01:50:32;;;;;;;7.18;3.72;;;;;;;;;;5007068;28;20392;-60
2024/02/11 01:52:59;;;;;;;8.57;3.92;;;;;;;;;;5012050;28;20034;-60
2024/02/11 01:55:25;;;;;;;7.55;4.25;;;;;;;;;;5000111;28;20038;-60
2024/02/11 01:57:52;;;;;;;8.27;4.00;;;;;;;;;;5010346;28;20040;-61
2024/02/11 02:00:19;;;;;;;7.95;4.07;;;;;;;;;;5008615;28;20137;-61
2024/02/11 02:02:47;;;;;;;8.80;4.18;;;;;;;;;;5000147;28;20033;-61
2024/02/11 02:05:13;;;;;;;7.38;4.35;;;;;;;;;;5006836;28;20038;-61
2024/02/11 02:07:39;;;;;;;9.07;4.57;;;;;;;;;;4999568;28;20111;-61
2024/02/11 02:10:06;;;;;;;6.22;3.45;;;;;;;;;;5007265;28;20096;-61
2024/02/11 02:12:32;;;;;;;5.32;3.60;;;;;;;;;;5008548;28;20042;-61
2024/02/11 02:14:58;;;;;;;4.93;3.30;;;;;;;;;;5009366;28;20022;-61
2024/02/11 02:17:24;;;;;;;3.83;3.47;;;;;;;;;;5010412;28;20042;-61
2024/02/11 02:19:51;;;;;;;6.15;3.50;;;;;;;;;;4998777;28;20045;-60
2024/02/11 02:22:18;;;;;;;4.70;3.83;;;;;;;;;;5005218;28;20030;-62
2024/02/11 02:24:44;;;;;;;5.57;3.65;;;;;;;;;;5003480;28;20334;-61
2024/02/11 02:27:12;;;;;;;6.82;4.00;;;;;;;;;;5005503;28;20056;-62
2024/02/11 02:29:38;;;;;;;3.83;3.22;;;;;;;;;;5002668;28;20030;-61
2024/02/11 02:32:04;;;;;;;5.55;3.50;;;;;;;;;;4996438;28;20029;-61
2024/02/11 02:34:30;;;;;;;4.75;3.70;;;;;;;;;;5006602;28;20026;-61
2024/02/11 02:36:56;;;;;;;5.28;3.63;;;;;;;;;;5005173;28;20022;-62
2024/02/11 02:39:24;;;;;;;4.32;2.92;;;;;;;;;;5002459;28;20095;-61
2024/02/11 02:41:50;;;;;;;6.75;4.38;;;;;;;;;;5010563;28;20042;-61
2024/02/11 02:44:16;;;;;;;4.72;3.58;;;;;;;;;;5009893;28;20034;-61
2024/02/11 02:46:42;;;;;;;5.30;3.85;;;;;;;;;;5009818;28;20053;-61
2024/02/11 02:49:08;;;;;;;5.55;4.40;;;;;;;;;;4995704;28;20030;-62
2024/02/11 02:51:34;;;;;;;6.40;5.45;;;;;;;;;;5004990;28;20026;-61
2024/02/11 02:54:03;;;;;;;6.32;5.65;;;;;;;;;;5006316;28;20379;-61
2024/02/11 02:56:31;;;;;;;6.90;5.93;;;;;;;;;;5012099;28;20511;-61
2024/02/11 02:58:58;;;;;;;7.40;6.10;;;;;;;;;;4999831;28;20026;-61
2024/02/11 03:01:26;;;;;;;9.15;6.60;;;;;;;;;;5009787;28;20464;-61
2024/02/11 03:03:52;;;;;;;7.13;6.40;;;;;;;;;;5006694;28;20071;-61
2024/02/11 03:06:18;;;;;;;7.40;6.57;;;;;;;;;;5007989;28;20030;-61
2024/02/11 03:08:44;;;;;;;6.78;6.05;;;;;;;;;;5005842;28;20041;-61
2024/02/11 03:11:10;;;;;;;6.80;5.80;;;;;;;;;;5006520;28;20034;-61
2024/02/11 03:13:36;;;;;;;7.75;6.70;;;;;;;;;;5007013;28;20026;-60
2024/02/11 03:16:02;;;;;;;8.27;7.10;;;;;;;;;;5006308;28;20030;-61
2024/02/11 03:18:28;;;;;;;7.60;6.22;;;;;;;;;;4999946;28;20035;-61
2024/02/11 03:20:54;;;;;;;9.93;7.55;;;;;;;;;;5011415;28;20034;-61
2024/02/11 03:23:20;;;;;;;6.82;6.13;;;;;;;;;;5007776;28;20034;-60
2024/02/11 03:25:46;;;;;;;7.50;6.70;;;;;;;;;;4999966;28;20480;-61
2024/02/11 03:28:13;;;;;;;8.57;7.68;;;;;;;;;;5004759;28;20180;-61
2024/02/11 03:30:39;;;;;;;7.25;6.30;;;;;;;;;;5010290;28;20029;-60
2024/02/11 03:33:05;;;;;;;8.73;7.82;;;;;;;;;;5005900;28;20030;-60
2024/02/11 03:35:31;;;;;;;8.82;7.93;;;;;;;;;;5006106;28;20030;-60
2024/02/11 03:37:57;;;;;;;8.73;7.05;;;;;;;;;;5002135;28;20149;-61
2024/02/11 03:40:24;;;;;;;10.15;8.30;;;;;;;;;;5004036;28;20038;-61
2024/02/11 03:42:50;;;;;;;11.55;8.75;;;;;;;;;;5009428;28;20057;-61
2024/02/11 03:45:18;;;;;;;8.80;7.88;;;;;;;;;;5004583;28;20116;-61
2024/02/11 03:47:45;;;;;;;8.00;6.80;;;;;;;;;;5005669;28;20411;-62
2024/02/11 03:50:13;;;;;;;7.85;6.75;;;;;;;;;;5008256;28;20034;-62
2024/02/11 03:52:40;;;;;;;9.55;8.18;;;;;;;;;;5009134;28;20025;-61
2024/02/11 03:55:08;;;;;;;8.07;6.72;;;;;;;;;;5013246;28;20467;-62
2024/02/11 03:57:34;;;;;;;7.75;6.88;;;;;;;;;;5012797;28;20026;-61
2024/02/11 04:00:19;;;;;;;8.73;6.82;;;;;;;;;;5007648;28;20042;-62
2024/02/11 04:02:45;;;;;;;9.13;8.20;;;;;;;;;;5014326;28;20387;-61
2024/02/11 04:05:15;;;;;;;9.00;7.57;;;;;;;;;;5009188;28;20040;-61
2024/02/11 04:07:45;;;;;;;8.90;6.95;;;;;;;;;;5004124;28;20025;-62
2024/02/11 04:10:17;;;;;;;8.88;7.45;;;;;;;;;;5008843;28;20030;-61
2024/02/11 04:12:43;;;;;;;11.45;8.95;;;;;;;;;;5008009;28;20034;-62
2024/02/11 04:15:10;;;;;;;11.55;8.80;;;;;;;;;;5009520;28;20392;-62
2024/02/11 04:17:36;;;;;;;8.13;6.80;;;;;;;;;;5001196;28;20356;-61
2024/02/11 04:20:03;;;;;;;8.90;7.25;;;;;;;;;;5007533;28;20030;-62
2024/02/11 04:22:29;;;;;;;8.70;7.55;;;;;;;;;;5009057;28;20064;-62
2024/02/11 04:24:55;;;;;;;9.38;7.85;;;;;;;;;;5012661;28;20492;-61
2024/02/11 04:27:23;;;;;;;9.85;8.43;;;;;;;;;;5014346;28;20033;-62
2024/02/11 04:30:05;;;;;;;8.82;7.93;;;;;;;;;;5013694;28;20022;-62
2024/02/11 04:32:31;;;;;;;9.18;7.90;;;;;;;;;;5006403;28;20030;-62
2024/02/11 04:34:57;;;;;;;12.93;10.40;;;;;;;;;;5005227;28;20383;-62
2024/02/11 04:37:24;;;;;;;15.85;10.52;;;;;;;;;;5007611;28;20095;-62
2024/02/11 04:39:50;;;;;;;12.00;9.07;;;;;;;;;;5028423;28;20456;-62
2024/02/11 04:42:18;;;;;;;12.75;9.13;;;;;;;;;;5009323;28;20038;-62
2024/02/11 04:44:46;;;;;;;9.80;8.27;;;;;;;;;;5012082;28;20164;-62
2024/02/11 04:47:12;;;;;;;13.52;9.02;;;;;;;;;;5004193;28;20049;-62
2024/02/11 04:49:39;;;;;;;9.90;7.93;;;;;;;;;;5028832;28;20026;-61
2024/02/11 04:52:07;;;;;;;10.98;8.52;;;;;;;;;;5004030;28;20028;-61
2024/02/11 04:54:35;;;;;;;7.45;6.55;;;;;;;;;;5007054;28;20029;-61
2024/02/11 04:57:03;;;;;;;10.75;7.82;;;;;;;;;;5003662;28;20031;-61
2024/02/11 04:59:29;;;;;;;9.70;7.70;;;;;;;;;;5008743;28;20022;-62
2024/02/11 05:01:55;;;;;;;9.27;7.15;;;;;;;;;;5006510;28;20044;-62
2024/02/11 05:04:21;;;;;;;8.30;6.93;;;;;;;;;;5001930;28;20499;-61
2024/02/11 05:06:47;;;;;;;12.10;8.52;;;;;;;;;;4998962;28;20101;-62
2024/02/11 05:09:15;;;;;;;9.63;8.02;;;;;;;;;;5007211;28;20026;-62
2024/02/11 05:11:42;;;;;;;7.70;6.57;;;;;;;;;;5011412;28;20026;-62
2024/02/11 05:14:08;;;;;;;7.18;6.35;;;;;;;;;;5011683;28;20030;-61
2024/02/11 05:16:34;;;;;;;6.65;5.90;;;;;;;;;;5012454;28;20034;-61
2024/02/11 05:19:01;;;;;;;6.82;5.47;;;;;;;;;;5006223;28;20034;-62
2024/02/11 05:21:27;;;;;;;5.45;4.78;;;;;;;;;;5007484;28;20038;-62
2024/02/11 05:23:53;;;;;;;6.18;5.03;;;;;;;;;;5013252;28;20042;-61
2024/02/11 05:26:21;;;;;;;5.55;4.65;;;;;;;;;;5006812;28;20531;-62
2024/02/11 05:28:47;;;;;;;6.07;5.15;;;;;;;;;;5008405;28;20018;-62
2024/02/11 05:31:18;;;;;;;6.82;6.13;;;;;;;;;;5009175;28;20033;-62
2024/02/11 05:33:44;;;;;;;10.27;7.15;;;;;;;;;;5010732;28;20026;-62
2024/02/11 05:36:13;;;;;;;7.63;5.32;;;;;;;;;;5009981;28;20459;-62
2024/02/11 05:38:39;;;;;;;6.70;4.85;;;;;;;;;;5012251;28;20065;-62
2024/02/11 05:41:07;;;;;;;8.45;6.03;;;;;;;;;;5002385;28;20139;-62
2024/02/11 05:43:35;;;;;;;6.88;4.82;;;;;;;;;;5011076;28;20030;-62
2024/02/11 05:46:01;;;;;;;5.90;5.30;;;;;;;;;;5005845;28;20396;-62
2024/02/11 05:48:28;;;;;;;6.38;5.40;;;;;;;;;;5005494;28;20069;-62
2024/02/11 05:50:54;;;;;;;6.47;5.15;;;;;;;;;;5007460;28;20034;-62
2024/02/11 05:53:20;;;;;;;7.50;6.45;;;;;;;;;;5010412;28;20399;-62
2024/02/11 05:55:49;;;;;;;7.85;6.78;;;;;;;;;;5000551;28;20072;-62
2024/02/11 05:58:15;;;;;;;6.13;5.47;;;;;;;;;;5002230;28;20022;-62
2024/02/11 06:00:42;;;;;;;8.57;6.28;;;;;;;;;;5007790;28;20483;-62
2024/02/11 06:03:11;;;;;;;8.60;7.13;;;;;;;;;;5001379;28;20025;-62
2024/02/11 06:05:37;;;;;;;11.20;8.82;;;;;;;;;;5009370;28;20037;-62
2024/02/11 06:08:04;;;;;;;9.07;6.82;;;;;;;;;;5000890;28;20445;-62
2024/02/11 06:10:33;;;;;;;9.07;7.53;;;;;;;;;;5004139;28;20144;-62
2024/02/11 06:13:01;;;;;;;9.52;7.75;;;;;;;;;;5003634;28;20037;-62
2024/02/11 06:15:28;;;;;;;8.65;7.68;;;;;;;;;;5007044;28;20077;-62
2024/02/11 06:17:57;;;;;;;9.52;7.53;;;;;;;;;;5005084;28;20022;-62
2024/02/11 06:20:23;;;;;;;9.25;7.65;;;;;;;;;;5003237;28;20045;-61
2024/02/11 06:22:49;;;;;;;10.43;8.55;;;;;;;;;;4996955;28;20061;-62
2024/02/11 06:25:16;;;;;;;8.40;7.07;;;;;;;;;;5005040;28;20054;-62
2024/02/11 06:27:42;;;;;;;7.60;5.93;;;;;;;;;;5009889;28;20033;-62
2024/02/11 06:30:12;;;;;;;7.30;5.75;;;;;;;;;;5010038;28;20502;-62
2024/02/11 06:32:39;;;;;;;8.65;6.38;;;;;;;;;;5006489;28;20042;-62
2024/02/11 06:35:06;;;;;;;6.88;5.82;;;;;;;;;;5006380;28;20092;-62
2024/02/11 06:37:32;;;;;;;8.85;6.55;;;;;;;;;;5010672;28;20022;-62
2024/02/11 06:39:58;;;;;;;8.15;6.10;;;;;;;;;;5011604;28;20034;-62
2024/02/11 06:42:26;;;;;;;10.30;7.07;;;;;;;;;;5007491;28;20148;-62
2024/02/11 06:44:53;;;;;;;8.85;7.03;;;;;;;;;;5004388;28;20424;-61
2024/02/11 06:47:19;;;;;;;10.45;7.47;;;;;;;;;;5008351;28;20076;-62
2024/02/11 06:49:45;;;;;;;10.73;8.18;;;;;;;;;;4999940;28;20026;-62
2024/02/11 06:52:12;;;;;;;11.10;8.65;;;;;;;;;;5009622;28;20022;-62
2024/02/11 06:54:42;;;;;;;13.20;9.13;;;;;;;;;;5010142;28;20348;-62
2024/02/11 06:57:14;;;;;;;13.43;9.15;;;;;;;;;;5015810;28;20425;-61
2024/02/11 06:59:41;;;;;;;10.70;7.82;;;;;;;;;;4998841;28;20452;-62
2024/02/11 07:02:08;;;;;;;10.40;7.72;;;;;;;;;;4998696;28;20096;-61
2024/02/11 07:04:34;;;;;;;11.25;8.73;;;;;;;;;;4995896;28;20019;-61
2024/02/11 07:07:02;;;;;;;10.25;8.93;;;;;;;;;;5002212;28;20022;-61
2024/02/11 07:09:29;;;;;;;14.27;9.95;;;;;;;;;;5011119;28;20034;-61
2024/02/11 07:11:55;;;;;;;11.50;10.05;;;;;;;;;;5009907;28;20065;-59
2024/02/11 07:14:21;;;;;;;13.70;10.20;;;;;;;;;;5006154;28;20469;-61
2024/02/11 07:16:49;;;;;;;11.82;9.63;;;;;;;;;;4996887;28;20041;-61
2024/02/11 07:19:15;;;;;;;13.82;10.05;;;;;;;;;;5008636;28;20025;-61
2024/02/11 07:21:41;;;;;;;12.10;9.93;;;;;;;;;;5007968;28;20038;-61
2024/02/11 07:24:07;;;;;;;15.15;10.95;;;;;;;;;;5012748;28;20120;-61
2024/02/11 07:26:34;;;;;;;11.88;9.45;;;;;;;;;;5006137;28;20022;-61
2024/02/11 07:29:00;;;;;;;12.00;10.05;;;;;;;;;;5009754;28;20385;-61
2024/02/11 07:31:27;;;;;;;13.45;10.70;;;;;;;;;;5005375;28;20039;-61
2024/02/11 07:33:53;;;;;;;14.05;11.15;;;;;;;;;;5039854;28;20033;-61
2024/02/11 07:36:19;;;;;;;13.68;10.55;;;;;;;;;;5011176;28;20041;-60
2024/02/11 07:38:46;;;;;;;12.93;10.15;;;;;;;;;;5013636;28;20083;-60
2024/02/11 07:41:13;;;;;;;12.38;9.50;;;;;;;;;;5026299;28;20483;-60
2024/02/11 07:43:39;;;;;;;12.25;9.95;;;;;;;;;;5007328;28;20019;-61
2024/02/11 07:46:05;;;;;;;12.20;9.45;;;;;;;;;;5011227;28;20056;-62
2024/02/11 07:48:32;;;;;;;10.73;8.93;;;;;;;;;;5011982;28;20528;-62
2024/02/11 07:50:58;;;;;;;9.77;8.30;;;;;;;;;;5010868;28;20115;-61
2024/02/11 07:53:25;;;;;;;11.07;8.65;;;;;;;;;;5003128;28;20175;-62
2024/02/11 07:55:51;;;;;;;11.20;8.73;;;;;;;;;;5003681;28;20095;-62
2024/02/11 07:58:17;;;;;;;9.98;8.43;;;;;;;;;;5001508;28;20030;-62
2024/02/11 08:01:20;;;;;;;10.88;8.88;;;;;;;;;;5017293;28;20034;-61
2024/02/11 08:03:47;;;;;;;11.50;9.40;;;;;;;;;;5001327;28;20309;-62
2024/02/11 08:06:13;;;;;;;12.98;10.07;;;;;;;;;;5006597;28;20018;-62
2024/02/11 08:08:39;;;;;;;10.52;8.68;;;;;;;;;;5003284;28;20108;-62
2024/02/11 08:11:05;;;;;;;11.50;9.38;;;;;;;;;;5014130;28;20033;-62
2024/02/11 08:13:32;;;;;;;14.88;10.52;;;;;;;;;;5003595;28;20029;-62
2024/02/11 08:15:59;;;;;;;14.95;12.02;;;;;;;;;;5017158;28;20088;-62
2024/02/11 08:18:25;;;;;;;13.38;11.52;;;;;;;;;;5006111;28;20033;-62
2024/02/11 08:20:50;;;;;;;14.32;11.90;;;;;;;;;;5012349;28;20034;-62
2024/02/11 08:23:17;;;;;;;14.75;10.95;;;;;;;;;;5006904;28;20160;-61
2024/02/11 08:25:43;;;;;;;14.02;11.10;;;;;;;;;;5013171;28;20044;-62
2024/02/11 08:28:10;;;;;;;14.55;11.82;;;;;;;;;;5004503;28;20034;-62
2024/02/11 08:36:43;;;;;;;13.60;10.80;;;;;;;;;;5002089;28;20111;-62
2024/02/11 08:39:10;;;;;;;13.48;11.23;;;;;;;;;;5010830;28;20018;-62
2024/02/11 08:41:36;;;;;;;10.35;8.20;;;;;;;;;;5012129;28;20400;-62
2024/02/11 08:44:02;;;;;;;8.68;6.85;;;;;;;;;;5010761;28;20038;-62
2024/02/11 08:46:28;;;;;;;6.50;5.80;;;;;;;;;;5009837;28;20041;-62
2024/02/11 08:48:54;;;;;;;6.57;5.07;;;;;;;;;;5004466;28;20109;-63
2024/02/11 08:51:21;;;;;;;6.18;5.57;;;;;;;;;;5013716;28;20026;-63
2024/02/11 08:53:47;;;;;;;6.20;5.60;;;;;;;;;;5012567;28;20037;-63
2024/02/11 08:56:13;;;;;;;5.82;5.22;;;;;;;;;;5026839;28;20064;-63
2024/02/11 08:58:39;;;;;;;5.47;4.80;;;;;;;;;;5013994;28;20041;-63
2024/02/11 09:01:08;;;;;;;5.03;4.40;;;;;;;;;;5014614;28;20360;-63
2024/02/11 09:03:34;;;;;;;5.38;4.60;;;;;;;;;;5011159;28;20556;-63
2024/02/11 09:06:00;;;;;;;5.05;4.32;;;;;;;;;;5013329;28;20383;-63
2024/02/11 09:08:26;;;;;;;4.10;3.70;;;;;;;;;;5005544;28;20152;-63
2024/02/11 09:10:53;;;;;;;4.38;3.95;;;;;;;;;;5009023;28;20033;-61
2024/02/11 09:13:19;;;;;;;6.18;3.80;;;;;;;;;;5007441;28;20030;-62
2024/02/11 09:15:45;;;;;;;5.32;4.32;;;;;;;;;;5005464;28;20044;-62
2024/02/11 09:18:14;;;;;;;3.80;3.45;;;;;;;;;;5006694;28;20486;-61
2024/02/11 09:20:41;;;;;;;4.80;3.58;;;;;;;;;;5011872;28;20030;-62
2024/02/11 09:23:08;;;;;;;4.43;3.92;;;;;;;;;;5016337;28;20030;-62
2024/02/11 09:25:34;;;;;;;3.78;3.45;;;;;;;;;;5013260;28;20081;-62
2024/02/11 09:28:00;;;;;;;4.03;3.63;;;;;;;;;;5012991;28;20030;-62
2024/02/11 09:30:26;;;;;;;5.13;4.10;;;;;;;;;;5011919;28;20552;-62
2024/02/11 09:32:52;;;;;;;5.88;4.25;;;;;;;;;;5012150;28;20063;-62
2024/02/11 09:35:20;;;;;;;4.13;3.60;;;;;;;;;;5013022;28;20041;-62
2024/02/11 09:37:47;;;;;;;3.70;3.40;;;;;;;;;;5006905;28;20470;-62
2024/02/11 09:40:15;;;;;;;4.13;3.35;;;;;;;;;;5013036;28;20037;-62
2024/02/11 09:42:43;;;;;;;6.72;3.92;;;;;;;;;;5002344;28;20077;-62
2024/02/11 09:45:10;;;;;;;3.72;3.05;;;;;;;;;;5007107;28;20026;-62
2024/02/11 09:47:37;;;;;;;3.10;2.80;;;;;;;;;;5008995;28;20033;-63
2024/02/11 09:50:04;;;;;;;5.13;3.47;;;;;;;;;;5003313;28;20032;-62
2024/02/11 09:52:30;;;;;;;3.00;2.53;;;;;;;;;;5003151;28;20026;-63
2024/02/11 09:54:56;;;;;;;2.30;2.10;;;;;;;;;;5007188;28;20030;-63
2024/02/11 09:57:22;;;;;;;2.05;1.92;;;;;;;;;;5010265;28;20034;-63
2024/02/11 09:59:48;;;;;;;2.78;2.25;;;;;;;;;;5012285;28;20037;-63
2024/02/11 10:02:18;;;;;;;3.03;2.72;;;;;;;;;;5010230;28;20109;-63
2024/02/11 10:04:45;;;;;;;2.63;2.42;;;;;;;;;;5010860;28;20029;-62
2024/02/11 10:07:20;;;;;;;3.10;2.80;;;;;;;;;;5013631;28;20025;-63
2024/02/11 10:09:47;;;;;;;3.17;2.80;;;;;;;;;;5011897;28;20519;-63
2024/02/11 10:12:14;;;;;;;3.95;3.50;;;;;;;;;;5010708;28;20036;-63
2024/02/11 10:14:50;;;;;;;3.50;3.20;;;;;;;;;;5012487;28;20026;-63
2024/02/11 10:17:16;;;;;;;5.60;4.38;;;;;;;;;;5012311;28;20029;-63
2024/02/11 10:19:42;;;;;;;5.75;4.85;;;;;;;;;;5012594;28;20435;-63
2024/02/11 10:22:12;;;;;;;5.82;5.15;;;;;;;;;;5010880;28;20044;-63
2024/02/11 10:24:39;;;;;;;6.40;5.80;;;;;;;;;;5010294;28;20089;-63
2024/02/11 10:27:05;;;;;;;7.97;6.93;;;;;;;;;;5008922;28;20049;-63
2024/02/11 10:32:35;;;;;;;9.57;8.35;;;;;;;;;;4999852;28;20087;-63
2024/02/11 10:35:02;;;;;;;11.52;9.23;;;;;;;;;;5008998;28;20084;-62
2024/02/11 10:37:28;;;;;;;12.30;9.77;;;;;;;;;;5001589;28;20061;-62
2024/02/11 10:39:55;;;;;;;10.63;8.80;;;;;;;;;;5008990;28;20135;-62
2024/02/11 10:42:21;;;;;;;10.55;8.88;;;;;;;;;;5009680;28;20092;-63
2024/02/11 10:44:49;;;;;;;13.50;10.52;;;;;;;;;;5002710;28;20062;-62
2024/02/11 10:47:15;;;;;;;11.00;9.75;;;;;;;;;;5005772;28;20057;-62
2024/02/11 10:49:41;;;;;;;11.77;10.13;;;;;;;;;;5010795;28;20475;-62
2024/02/11 10:52:08;;;;;;;11.90;9.25;;;;;;;;;;5004877;28;20084;-63
2024/02/11 10:54:41;;;;;;;9.95;8.32;;;;;;;;;;5009248;28;20156;-62
2024/02/11 10:57:19;;;;;;;9.82;7.85;;;;;;;;;;5009522;28;20054;-62
2024/02/11 10:59:53;;;;;;;10.30;8.82;;;;;;;;;;5008853;28;20060;-62
2024/02/11 11:02:19;;;;;;;10.02;8.30;;;;;;;;;;5003574;28;20116;-62
2024/02/11 11:04:46;;;;;;;12.95;8.43;;;;;;;;;;5006104;28;20117;-59
2024/02/11 11:07:15;;;;;;;11.02;8.45;;;;;;;;;;5009568;28;20040;-63
2024/02/11 11:09:41;;;;;;;11.50;8.98;;;;;;;;;;5007702;28;20041;-62
2024/02/11 11:12:10;;;;;;;8.88;7.65;;;;;;;;;;5009286;28;20112;-63
2024/02/11 11:14:43;;;;;;;8.60;7.60;;;;;;;;;;5011655;28;20022;-63
2024/02/11 11:17:24;;;;;;;9.98;7.72;;;;;;;;;;5005492;28;20088;-63
2024/02/11 11:19:51;;;;;;;10.20;7.93;;;;;;;;;;5004256;28;20495;-63
2024/02/11 11:22:25;;;;;;;9.93;8.00;;;;;;;;;;4998420;28;20061;-62
2024/02/11 11:28:05;;;;;;;10.23;8.35;;;;;;;;;;5001592;28;20045;-63
2024/02/11 11:30:31;;;;;;;9.30;8.35;;;;;;;;;;5004687;28;20303;-62
2024/02/11 11:33:02;;;;;;;12.02;8.85;;;;;;;;;;5000887;28;20049;-63
2024/02/11 11:35:30;;;;;;;11.95;9.05;;;;;;;;;;5008721;28;20111;-63
2024/02/11 11:38:00;;;;;;;9.82;8.77;;;;;;;;;;5004927;28;20045;-63
2024/02/11 11:40:28;;;;;;;9.73;7.72;;;;;;;;;;5007518;28;20042;-63
2024/02/11 11:42:54;;;;;;;11.02;8.80;;;;;;;;;;5005711;28;20026;-62
2024/02/11 11:45:20;;;;;;;10.13;8.32;;;;;;;;;;5007356;28;20046;-62
2024/02/11 11:47:51;;;;;;;9.40;8.20;;;;;;;;;;5006605;28;20089;-62
2024/02/11 11:50:19;;;;;;;11.27;9.70;;;;;;;;;;5006376;28;20456;-62
2024/02/11 11:52:47;;;;;;;12.68;10.90;;;;;;;;;;5005162;28;20388;-63
2024/02/11 11:55:13;;;;;;;12.77;10.32;;;;;;;;;;5009584;28;20116;-63
2024/02/11 11:57:39;;;;;;;12.18;10.02;;;;;;;;;;5009514;28;20029;-62
2024/02/11 12:00:07;;;;;;;12.20;9.27;;;;;;;;;;5009767;28;20075;-62
2024/02/11 12:02:35;;;;;;;11.25;9.25;;;;;;;;;;5001445;28;20030;-61
2024/02/11 12:05:02;;;;;;;10.82;9.00;;;;;;;;;;5008514;28;20026;-61
2024/02/11 12:07:30;;;;;;;10.98;9.00;;;;;;;;;;5003796;28;20061;-61
2024/02/11 12:09:56;;;;;;;8.35;7.45;;;;;;;;;;5009264;28;20026;-61
2024/02/11 12:12:22;;;;;;;9.30;8.40;;;;;;;;;;5009996;28;20109;-61
2024/02/11 12:14:48;;;;;;;8.30;7.53;;;;;;;;;;5010912;28;20065;-62
2024/02/11 12:17:15;;;;;;;8.43;7.63;;;;;;;;;;5007780;28;20026;-62
2024/02/11 12:19:42;;;;;;;6.13;5.63;;;;;;;;;;5004170;28;20156;-62
2024/02/11 12:22:08;;;;;;;6.07;5.47;;;;;;;;;;5007245;28;20042;-60
2024/02/11 12:24:38;;;;;;;5.65;5.15;;;;;;;;;;5003485;28;20042;-61
2024/02/11 12:27:04;;;;;;;6.45;5.22;;;;;;;;;;5007411;28;20365;-60
2024/02/11 12:29:31;;;;;;;5.80;4.90;;;;;;;;;;5012060;28;20109;-61
2024/02/11 12:31:57;;;;;;;4.15;3.85;;;;;;;;;;5011460;28;20173;-61
2024/02/11 12:34:29;;;;;;;3.88;3.58;;;;;;;;;;5005818;28;20113;-61
2024/02/11 12:37:03;;;;;;;4.13;3.72;;;;;;;;;;5008503;28;20022;-61
2024/02/11 12:39:30;;;;;;;5.25;3.15;;;;;;;;;;5006126;28;20031;-60
2024/02/11 12:41:56;;;;;;;3.63;3.28;;;;;;;;;;5009036;28;20038;-60
2024/02/11 12:44:23;;;;;;;3.70;3.40;;;;;;;;;;5017955;28;20469;-60
2024/02/11 12:46:50;;;;;;;3.60;3.38;;;;;;;;;;5012453;28;20040;-60
2024/02/11 12:49:16;;;;;;;5.55;4.20;;;;;;;;;;5010346;28;20107;-60
2024/02/11 12:51:42;;;;;;;3.60;3.30;;;;;;;;;;5007800;28;20046;-60
2024/02/11 12:54:10;;;;;;;4.18;3.88;;;;;;;;;;5005590;28;20037;-61
2024/02/11 12:56:36;;;;;;;3.45;3.15;;;;;;;;;;5003711;28;20040;-61
2024/02/11 12:59:02;;;;;;;4.78;3.67;;;;;;;;;;5012824;28;20029;-60
2024/02/11 13:01:28;;;;;;;4.70;3.90;;;;;;;;;;5001993;28;20046;-60
2024/02/11 13:03:54;;;;;;;4.13;3.83;;;;;;;;;;5001066;28;20038;-60
2024/02/11 13:06:20;;;;;;;3.83;3.53;;;;;;;;;;5008111;28;20030;-60
2024/02/11 13:08:49;;;;;;;3.72;3.40;;;;;;;;;;5006226;28;20362;-60
2024/02/11 13:11:16;;;;;;;3.88;3.55;;;;;;;;;;5004281;28;20029;-60
2024/02/11 13:13:42;;;;;;;3.20;3.00;;;;;;;;;;5012912;28;20124;-61
2024/02/11 13:16:10;;;;;;;4.20;3.25;;;;;;;;;;5005232;28;20045;-61
2024/02/11 13:18:36;;;;;;;3.13;2.83;;;;;;;;;;5000226;28;20403;-60
2024/02/11 13:21:06;;;;;;;2.88;2.65;;;;;;;;;;5006574;28;20128;-61
2024/02/11 13:23:35;;;;;;;2.97;2.70;;;;;;;;;;5006029;28;20037;-60
2024/02/11 13:26:01;;;;;;;2.13;2.03;;;;;;;;;;5007584;28;20140;-60
2024/02/11 13:28:27;;;;;;;3.83;3.50;;;;;;;;;;5010052;28;20100;-60
2024/02/11 13:30:55;;;;;;;2.90;2.70;;;;;;;;;;5008698;28;20042;-60
2024/02/11 13:33:25;;;;;;;2.88;2.67;;;;;;;;;;5007243;28;20066;-60
2024/02/11 13:35:51;;;;;;;3.25;2.95;;;;;;;;;;5007030;28;20025;-60
2024/02/11 13:38:22;;;;;;;2.78;2.58;;;;;;;;;;5007803;28;20179;-60
2024/02/11 13:40:48;;;;;;;3.88;3.30;;;;;;;;;;5012700;28;20133;-60
2024/02/11 13:43:14;;;;;;;3.03;2.72;;;;;;;;;;5002822;28;20034;-61
2024/02/11 13:45:42;;;;;;;6.50;2.85;;;;;;;;;;5011299;28;20042;-60
2024/02/11 13:48:08;;;;;;;3.00;2.58;;;;;;;;;;5012505;28;20530;-60
2024/02/11 13:50:34;;;;;;;3.85;2.97;;;;;;;;;;5005479;28;20038;-60
2024/02/11 13:53:01;;;;;;;4.18;2.80;;;;;;;;;;5003860;28;20049;-58
2024/02/11 13:55:28;;;;;;;4.40;4.00;;;;;;;;;;5003986;28;20026;-56
2024/02/11 13:57:54;;;;;;;5.25;4.00;;;;;;;;;;5006724;28;20058;-59
2024/02/11 14:00:23;;;;;;;4.10;3.60;;;;;;;;;;5009157;28;20483;-57
2024/02/11 14:02:50;;;;;;;5.28;3.88;;;;;;;;;;5000406;28;20026;-58
2024/02/11 14:05:16;;;;;;;5.05;4.05;;;;;;;;;;5007690;28;20022;-58
2024/02/11 14:07:42;;;;;;;4.60;4.20;;;;;;;;;;5010973;28;20018;-58
2024/02/11 14:10:08;;;;;;;6.22;5.63;;;;;;;;;;5012446;28;20108;-57
2024/02/11 14:12:40;;;;;;;4.85;4.43;;;;;;;;;;5013054;28;20084;-58
2024/02/11 14:15:11;;;;;;;4.05;3.67;;;;;;;;;;5005220;28;20499;-58
2024/02/11 14:17:42;;;;;;;3.95;3.55;;;;;;;;;;5008491;28;20034;-60
2024/02/11 14:20:11;;;;;;;5.43;3.83;;;;;;;;;;5006977;28;20034;-59
2024/02/11 14:22:37;;;;;;;3.55;3.25;;;;;;;;;;5002539;28;20038;-59
2024/02/11 14:25:03;;;;;;;6.40;3.97;;;;;;;;;;5004949;28;20484;-59
2024/02/11 14:27:29;;;;;;;3.90;3.60;;;;;;;;;;5011460;28;20037;-57
2024/02/11 14:29:55;;;;;;;5.60;4.20;;;;;;;;;;5006784;28;20022;-58
2024/02/11 14:32:21;;;;;;;4.78;4.28;;;;;;;;;;5009453;28;20018;-58
2024/02/11 14:34:50;;;;;;;5.03;4.60;;;;;;;;;;5010768;28;20030;-59
2024/02/11 14:37:16;;;;;;;5.47;4.70;;;;;;;;;;5012019;28;20068;-60
2024/02/11 14:39:42;;;;;;;6.85;4.45;;;;;;;;;;5012084;28;20403;-60
2024/02/11 14:42:08;;;;;;;6.78;4.38;;;;;;;;;;5011814;28;20085;-60
2024/02/11 14:44:34;;;;;;;4.40;4.00;;;;;;;;;;5012010;28;20115;-60
2024/02/11 14:47:02;;;;;;;4.35;3.92;;;;;;;;;;5003670;28;20384;-60
2024/02/11 14:49:28;;;;;;;5.88;4.68;;;;;;;;;;5006708;28;20029;-59